Carland, Michigan
Current Conditions -  °F | °C
As of 7:15 AM on Saturday 20 Dec 2014 (Local Time) from KRNP Reporting Station
Broken Clouds Broken Clouds  
Wind Chill: -9°   Ceiling: 2100
Heat Index: -9°   Visibility: 7mi
Dew Point: -9°   Wind: 0mph
Humidity: 98%   Direction: NA
Pressure: 30.29"   Gusts: NA
Location:  43.0981°N, 84.3788°W
Report Text: KRNP 201215Z AUTO 00000KT 7SM BKN021 M09/M09 A3029 RMK AO2 T10901092
Loading
Personal Weather Stations






























Interactive Weather Map New forecast layout! Learn more

10-Day Weather Forecast

Advertisements
Track Severe Weather on mobile